• Join FlightAware (Why Join?)
  • Login
  • US Flag 
08:07PM EDT


 

Airport Tracker/Info


-or-


 

Live Flight TrackerFlight Track Log ✈ CHQ4738 ✈ 09-Feb-2014 ✈ KALB - KCLE

Flight Track Log - Related Links

Times and Time Zones

All times are in EST time to prevent confusion due to time zone crossing. See the CHQ4738 flight status page for this flight to view local times or setup timezone preferences in your user account.

Time Position Orientation Groundspeed Altitude Reporting Facility
EST Latitude Longitude Course Direction KTS MPH feet Rate Location/Type
10:11AM 42.7700 -73.8067 336° Northwest 169 194 1,200  Level Boston Center
10:12AM 42.8144 -73.8333 336° Northwest 185 213 3,500 2,160 Climbing Boston Center
10:12AM 42.8181 -73.8372 322° Northwest 181 208 3,600 1,980 Climbing Boston Center
10:13AM 42.8603 -73.8911 317° Northwest 209 241 5,700 2,160 Climbing Boston Center
10:14AM 42.9064 -73.9486 318° Northwest 224 258 8,000 2,220 Climbing Boston Center
10:15AM 42.9528 -74.0064 318° Northwest 227 261 10,300 1,920 Climbing Boston Center
10:16AM 42.9681 -74.0906 284° West 230 265 11,900 1,500 Climbing Boston Center
10:17AM 42.9775 -74.1833 278° West 245 282 13,400 1,560 Climbing Boston Center
10:18AM 42.9886 -74.2914 278° West 265 305 15,100 1,560 Climbing Boston Center
10:19AM 42.9986 -74.3931 278° West 272 313 16,600 1,320 Climbing Boston Center
10:20AM 43.0086 -74.4958 278° West 273 314 17,900 1,320 Climbing Boston Center
10:21AM 43.0172 -74.5872 277° West 273 314 19,300 1,380 Climbing Boston Center
10:22AM 43.0264 -74.6892 277° West 271 312 20,800 1,440 Climbing Boston Center
10:23AM 43.0350 -74.7919 277° West 272 313 22,300 1,440 Climbing Boston Center
10:24AM 43.0281 -74.8942 265° West 269 310 23,800 1,440 Climbing Boston Center
10:25AM 43.0228 -74.9933 266° West 262 302 25,300 1,440 Climbing Boston Center
10:26AM 43.0181 -75.0917 266° West 260 299 26,800 1,620 Climbing Boston Center
10:27AM 43.0117 -75.2047 266° West 251 289 28,600 1,440 Climbing Boston Center
10:28AM 43.0061 -75.2956 265° West 243 280 29,800 660 Climbing Boston Center
10:29AM 43.0014 -75.3900 266° West 246 283 30,000 60 Climbing Boston Center
10:30AM 42.9936 -75.4994 264° West 282 325 30,000  Level Boston Center
10:32AM 42.9794 -75.7356 265° West 313 360 30,000  Level Boston Center
10:33AM 42.9719 -75.8550 265° West 316 364 30,000  Level Boston Center
10:34AM 42.9644 -75.9725 265° West 312 359 30,000  Level Boston Center
10:35AM 42.9569 -76.0892 265° West 310 357 30,000  Level Boston Center
10:36AM 42.9497 -76.2056 265° West 308 354 30,000  Level Boston Center
10:37AM 42.9422 -76.3222 265° West 309 356 30,000  Level Boston Center
10:38AM 42.9342 -76.4375 265° West 306 352 30,000  Level Boston Center
10:39AM 42.9267 -76.5550 265° West 309 356 30,000  Level Boston Center
10:40AM 42.9172 -76.6756 264° West 318 366 30,000  Level Boston Center
10:41AM 42.9094 -76.7942 265° West 317 365 30,000  Level Boston Center
10:42AM 42.9006 -76.9167 264° West 322 371 30,000  Level Boston Center
10:43AM 42.8911 -77.0369 264° West 322 371 30,000  Level Boston Center
10:44AM 42.8392 -77.1656 241° Southwest 326 375 30,000  Level Boston Center
10:45AM 42.7947 -77.2719 240° Southwest 326 375 30,000  Level Boston Center
10:46AM 42.7492 -77.3792 240° Southwest 328 377 30,000  Level Boston Center
10:48AM 42.7031 -77.4875 240° Southwest 330 380 30,000  Level Boston Center
10:49AM 42.6478 -77.6175 240° Southwest 330 380 30,000  Level Cleveland Center
10:50AM 42.6011 -77.7242 239° Southwest 329 379 30,000  Level Cleveland Center
10:51AM 42.5500 -77.8419 240° Southwest 336 387 30,000  Level Cleveland Center
10:52AM 42.5028 -77.9486 239° Southwest 333 383 30,000  Level Cleveland Center
10:53AM 42.4550 -78.0569 239° Southwest 334 384 30,000  Level Cleveland Center
10:54AM 42.4078 -78.1653 239° Southwest 335 386 30,000  Level Cleveland Center
10:55AM 42.3603 -78.2733 239° Southwest 335 386 30,000  Level Cleveland Center
10:56AM 42.3128 -78.3808 239° Southwest 335 386 30,000  Level Cleveland Center
10:57AM 42.2561 -78.5089 239° Southwest 332 382 30,000  Level Cleveland Center
10:58AM 42.2092 -78.6161 239° Southwest 332 382 30,000  Level Cleveland Center
10:59AM 42.1642 -78.7169 239° Southwest 334 384 30,000  Level Cleveland Center
11:00AM 42.1169 -78.8217 239° Southwest 331 381 30,000  Level Cleveland Center
11:01AM 42.0706 -78.9278 240° Southwest 331 381 30,000  Level Cleveland Center
11:02AM 42.0142 -79.0542 239° Southwest 331 381 30,000  Level Cleveland Center
11:03AM 41.9661 -79.1586 238° Southwest 330 380 30,000 -360 Level Cleveland Center
11:04AM 41.9192 -79.2631 239° Southwest 330 380 29,300 -840 Descending Cleveland Center
11:05AM 41.8706 -79.3650 237° Southwest 325 374 28,300 -1,080 Descending Cleveland Center
11:06AM 41.8253 -79.4656 239° Southwest 320 368 27,200 -1,080 Descending Cleveland Center
11:07AM 41.7808 -79.5683 240° Southwest 322 371 26,200 -600 Descending Cleveland Center
11:08AM 41.7625 -79.6928 259° West 343 395 26,000 -120 Descending Cleveland Center
11:09AM 41.7419 -79.8144 257° West 336 387 26,000 -180 Level Cleveland Center
11:10AM 41.7208 -79.9383 257° West 337 388 25,700 -1,080 Descending Cleveland Center
11:11AM 41.7039 -80.0569 259° West 320 368 23,800 -2,100 Descending Cleveland Center
11:12AM 41.6817 -80.1867 257° West 307 353 21,500 -1,980 Descending Cleveland Center
11:14AM 41.6408 -80.4236 258° West 321 369 17,800 -1,800 Descending Cleveland Center
11:15AM 41.6225 -80.5389 258° West 316 364 16,100 -1,740 Descending Cleveland Center
11:16AM 41.6036 -80.6536 258° West 314 361 14,300 -1,680 Descending Cleveland Center
11:17AM 41.5933 -80.7119 257° West 320 368 13,600 -1,500 Descending Cleveland Center
11:18AM 41.5664 -80.8869 258° West 306 352 11,300 -1,500 Descending Cleveland Center
11:18AM 41.5644 -80.8833 126° Southeast 310 357 11,300 -1,080 Level Cleveland Center
11:19AM 41.5444 -80.9942 256° West 306 352 10,200 -720 Descending Cleveland Center
11:20AM 41.5300 -81.0936 259° West 292 336 10,000 -240 Descending Cleveland Center
11:20AM 41.5278 -81.1033 253° West 300 345 10,000  Level Cleveland Center
11:21AM 41.5192 -81.1953 263° West 277 319 10,000  Level Cleveland Center
11:21AM 41.5203 -81.2064 278° West 286 329 10,000 -960 Level Cleveland Center
11:24AM 41.5411 -81.3836 255° West 235 270 8,000 -1,320 Descending Cleveland Center
11:25AM 41.5525 -81.4658 281° West 226 260 6,100 -1,860 Descending Cleveland Center
11:25AM 41.5517 -81.5411 269° West 213 245 4,700 -1,500 Descending Cleveland Center
11:26AM 41.5500 -81.5458 245° Southwest 220 253 4,600 -720 Descending Cleveland Center
11:26AM 41.5489 -81.6189 269° West 208 239 4,000 -600 Descending Cleveland Center
11:27AM 41.5461 -81.6361 258° West 212 244 4,000 -420 Level Cleveland Center
11:27AM 41.5197 -81.6839 234° Southwest 197 227 3,600 -720 Descending Cleveland Center
11:28AM 41.5119 -81.6953 228° Southwest 204 235 3,300 -600 Descending Cleveland Center
11:28AM 41.4881 -81.7319 229° Southwest 163 188 3,000 -300 Descending Cleveland Center
11:29AM 41.4828 -81.7397 228° Southwest 173 199 3,000 -540 Level Cleveland Center
11:29AM 41.4681 -81.7678 235° Southwest 114 131 2,500 -600 Descending Cleveland Center
11:30AM 41.4614 -81.7742 216° Southwest 134 154 2,400 -720 Descending Cleveland Center
11:30AM 41.4439 -81.8031 231° Southwest 127 146 1,800 -720 Descending Cleveland Center
11:31AM 41.4389 -81.8097 225° Southwest 127 146 1,700 -720 Descending Cleveland Center
11:32AM 41.4161 -81.8464 230° Southwest 127 146 900 -840 Descending Cleveland Center
11:34AM 41.4000 -81.8500 252° West  Level FlightAware Approximate